Time;durP1;ratioP1;P1;durP2;ratioP2;P2;SDS_P1;SDS_P2;PMS_P1;PMS_P2;Temp;Humidity;BMP_temperature;BMP_pressure;BME280_temperature;BME280_humidity;BME280_pressure;Samples;Min_cycle;Max_cycle;Signal;HPM_P1;HPM_P2
2021/03/01 05:02:23;;;;;;;8.50;6.57;;;1.90;47.40;;;;;;6167568;23;20203;-89
2021/03/01 05:04:49;;;;;;;6.60;5.53;;;1.70;46.80;;;;;;6162830;23;20186;-89
2021/03/01 05:07:15;;;;;;;6.97;5.67;;;2.40;47.20;;;;;;6162980;23;20398;-89
2021/03/01 05:09:41;;;;;;;7.15;6.45;;;1.80;46.20;;;;;;6162475;23;20151;-87
2021/03/01 05:12:07;;;;;;;9.55;6.38;;;2.00;46.50;;;;;;6162362;23;20170;-88
2021/03/01 05:14:33;;;;;;;6.27;5.47;;;1.80;46.00;;;;;;6163635;23;20147;-88
2021/03/01 05:17:02;;;;;;;5.83;4.93;;;1.60;45.90;;;;;;6162456;23;20574;-87
2021/03/01 05:19:32;;;;;;;8.88;6.18;;;2.40;47.20;;;;;;6162758;23;20210;-87
2021/03/01 05:21:58;;;;;;;7.72;6.18;;;2.30;46.90;;;;;;6162699;23;20574;-87
2021/03/01 05:24:25;;;;;;;7.67;6.53;;;1.30;45.40;;;;;;6163580;23;20240;-88
2021/03/01 05:26:52;;;;;;;7.72;6.47;;;1.80;46.00;;;;;;6162955;23;20422;-87
2021/03/01 05:29:18;;;;;;;8.27;6.78;;;1.80;45.80;;;;;;6163558;23;20139;-87
2021/03/01 05:31:44;;;;;;;7.57;5.23;;;1.70;46.10;;;;;;6150738;23;20230;-90
2021/03/01 05:34:10;;;;;;;7.82;5.88;;;1.90;46.70;;;;;;6133495;23;20156;-89
2021/03/01 05:36:36;;;;;;;6.67;5.97;;;2.00;46.20;;;;;;6157726;23;20151;-89
2021/03/01 05:39:04;;;;;;;6.57;5.53;;;1.90;46.50;;;;;;6157560;23;20152;-90
2021/03/01 05:41:32;;;;;;;7.22;5.30;;;1.70;45.80;;;;;;6133064;23;20152;-88
2021/03/01 05:43:58;;;;;;;8.55;6.40;;;2.30;46.20;;;;;;6132732;23;20155;-90
2021/03/01 05:46:24;;;;;;;7.47;6.35;;;1.90;46.60;;;;;;6133310;23;20174;-89
2021/03/01 05:48:52;;;;;;;6.78;5.75;;;2.00;46.00;;;;;;6132633;23;20140;-89
2021/03/01 05:51:22;;;;;;;9.82;6.78;;;1.20;45.30;;;;;;6132667;23;20585;-89
2021/03/01 05:53:51;;;;;;;7.82;6.50;;;1.30;45.50;;;;;;6132901;23;20167;-89
2021/03/01 05:56:17;;;;;;;7.90;6.55;;;2.10;47.00;;;;;;6133716;23;20175;-90
2021/03/01 05:58:44;;;;;;;8.00;6.32;;;1.60;45.60;;;;;;6159766;23;20140;-89
2021/03/01 06:01:09;;;;;;;9.80;6.63;;;1.50;46.00;;;;;;6132244;23;20148;-89
2021/03/01 06:03:37;;;;;;;8.97;7.03;;;1.10;45.30;;;;;;6157674;23;20183;-89
2021/03/01 06:06:04;;;;;;;8.88;6.85;;;2.20;45.90;;;;;;6133523;23;20171;-90
2021/03/01 06:08:31;;;;;;;7.85;6.20;;;1.50;45.80;;;;;;6159137;23;20140;-91
2021/03/01 06:11:00;;;;;;;10.68;6.70;;;1.60;46.10;;;;;;6158947;23;20218;-88
2021/03/01 06:13:27;;;;;;;8.20;6.45;;;1.60;46.60;;;;;;6137980;23;20207;-90
2021/03/01 06:15:57;;;;;;;8.32;6.13;;;1.00;45.30;;;;;;6133211;23;20155;-92
2021/03/01 06:18:24;;;;;;;9.43;6.95;;;1.50;45.40;;;;;;6132839;23;20179;-89
2021/03/01 06:20:51;;;;;;;8.68;6.80;;;1.00;45.40;;;;;;6134032;23;20545;-89
2021/03/01 06:23:31;;;;;;;8.40;6.53;;;1.50;46.60;;;;;;6132898;23;20158;-88
2021/03/01 06:26:34;;;;;;;8.95;7.70;;;1.50;46.60;;;;;;6134520;23;20185;-91
2021/03/01 06:29:03;;;;;;;9.13;6.25;;;1.30;46.90;;;;;;6134459;23;20147;-89
2021/03/01 06:34:50;;;;;;;7.18;5.88;;;1.20;47.50;;;;;;6163144;23;20139;-91
2021/03/01 06:37:17;;;;;;;9.33;6.70;;;1.20;46.80;;;;;;6161685;23;20156;-93
2021/03/01 06:39:45;;;;;;;8.23;6.60;;;0.80;46.00;;;;;;6138691;23;20375;-89
2021/03/01 06:42:16;;;;;;;7.07;4.95;;;1.60;46.50;;;;;;6132887;23;20151;-89
2021/03/01 06:45:01;;;;;;;8.48;6.30;;;2.10;47.30;;;;;;6133512;23;20156;-91
2021/03/01 06:47:48;;;;;;;9.77;6.93;;;1.70;46.60;;;;;;6137581;23;20159;-91
2021/03/01 06:50:32;;;;;;;10.98;7.50;;;1.60;46.90;;;;;;6136107;23;20156;-93
2021/03/01 06:53:14;;;;;;;9.07;7.60;;;2.20;47.30;;;;;;6141037;23;20613;-93
2021/03/01 08:07:09;;;;;;;10.75;8.75;;;4.90;42.40;;;;;;6225469;22;20201;-92
2021/03/01 08:09:50;;;;;;;10.45;8.43;;;5.00;41.90;;;;;;6200289;23;20584;-93
2021/03/01 08:22:27;;;;;;;11.95;9.93;;;5.80;41.30;;;;;;6108635;23;20139;-92
2021/03/01 08:25:08;;;;;;;16.20;9.35;;;6.00;41.10;;;;;;6074256;23;20708;-92
2021/03/01 08:27:45;;;;;;;11.18;8.43;;;6.10;40.40;;;;;;6204474;23;20131;-92
2021/03/01 08:30:38;;;;;;;14.77;10.27;;;6.60;40.30;;;;;;6233488;23;20153;-92
2021/03/01 08:33:26;;;;;;;11.73;9.10;;;6.80;39.80;;;;;;6233015;23;20158;-92
2021/03/01 08:39:54;;;;;;;11.73;8.70;;;6.60;39.30;;;;;;6238021;23;20215;-90
2021/03/01 08:42:44;;;;;;;13.93;9.73;;;6.90;38.70;;;;;;6205684;23;20145;-91
2021/03/01 08:45:32;;;;;;;11.02;9.82;;;6.80;38.40;;;;;;6205104;23;20173;-92
2021/03/01 08:48:01;;;;;;;10.25;9.00;;;7.20;38.60;;;;;;6206929;23;20150;-93
2021/03/01 08:51:11;;;;;;;10.48;9.23;;;7.20;38.40;;;;;;6209557;23;20143;-94
2021/03/01 08:53:38;;;;;;;13.93;10.20;;;7.50;38.10;;;;;;6202097;23;20146;-93
2021/03/01 08:56:28;;;;;;;13.23;11.25;;;7.50;37.50;;;;;;6185709;23;20145;-92
2021/03/01 08:58:56;;;;;;;12.52;10.02;;;7.50;38.10;;;;;;6196568;23;20174;-92
2021/03/01 09:01:24;;;;;;;11.80;10.53;;;8.00;38.30;;;;;;6203050;23;20303;-91
2021/03/01 09:03:50;;;;;;;10.95;9.95;;;7.60;37.20;;;;;;6195993;23;20517;-90
2021/03/01 09:06:20;;;;;;;10.60;9.50;;;7.90;37.70;;;;;;6193203;23;20244;-92
2021/03/01 09:08:51;;;;;;;14.38;10.15;;;7.90;37.60;;;;;;6195145;23;20204;-92
2021/03/01 09:11:25;;;;;;;13.52;10.07;;;8.10;37.00;;;;;;6194328;23;20150;-93
2021/03/01 09:14:25;;;;;;;13.75;10.02;;;8.30;36.60;;;;;;6201965;23;20226;-92
2021/03/01 09:16:54;;;;;;;11.65;10.43;;;8.30;36.70;;;;;;6200438;23;20154;-92
2021/03/01 09:19:36;;;;;;;16.83;10.68;;;8.50;36.10;;;;;;6199343;23;20168;-91
2021/03/01 09:22:03;;;;;;;14.55;11.32;;;8.40;36.50;;;;;;6213052;23;20154;-92
2021/03/01 09:24:37;;;;;;;13.82;11.00;;;8.40;35.90;;;;;;6200532;23;20158;-91
2021/03/01 09:27:03;;;;;;;12.73;9.85;;;8.40;36.20;;;;;;6207514;23;20600;-92
2021/03/01 09:29:45;;;;;;;15.00;11.20;;;8.70;36.20;;;;;;6211022;23;20155;-92
2021/03/01 09:35:35;;;;;;;11.70;10.50;;;8.80;36.00;;;;;;6228507;23;20142;-95
2021/03/01 09:38:10;;;;;;;12.00;10.00;;;9.10;35.80;;;;;;6208848;23;20218;-94
2021/03/01 09:40:42;;;;;;;14.05;11.25;;;9.70;36.40;;;;;;6209214;23;20199;-94
2021/03/01 09:43:58;;;;;;;14.75;11.05;;;9.10;35.10;;;;;;6213651;23;20189;-92
2021/03/01 09:46:26;;;;;;;18.02;11.02;;;9.60;35.10;;;;;;6197401;23;20166;-93
2021/03/01 09:48:55;;;;;;;12.13;10.85;;;9.60;34.40;;;;;;6199025;23;20142;-92
2021/03/01 09:54:44;;;;;;;12.25;10.68;;;9.80;34.00;;;;;;6226406;23;20235;-93
2021/03/01 10:00:33;;;;;;;12.60;10.93;;;10.20;32.90;;;;;;6227243;23;20137;-93
2021/03/01 10:09:51;;;;;;;10.00;9.00;;;10.70;32.00;;;;;;6230259;23;20220;-93
2021/03/01 10:16:02;;;;;;;9.93;8.93;;;10.80;31.20;;;;;;6223345;23;20467;-93
2021/03/01 10:18:30;;;;;;;10.98;9.50;;;11.20;31.20;;;;;;6195785;23;20139;-92
2021/03/01 10:21:02;;;;;;;11.40;9.07;;;11.10;30.80;;;;;;6195192;23;20145;-92
2021/03/01 10:26:53;;;;;;;9.55;8.55;;;11.40;30.30;;;;;;6232667;23;20420;-94
2021/03/01 10:32:41;;;;;;;10.20;7.73;;;11.80;29.90;;;;;;6227199;23;20830;-94
2021/03/01 10:42:29;;;;;;;9.43;7.60;;;12.50;29.10;;;;;;6133671;23;20375;-93
2021/03/01 10:44:57;;;;;;;7.30;6.60;;;12.80;28.40;;;;;;6107594;23;20411;-92
2021/03/01 10:47:25;;;;;;;8.13;7.37;;;13.00;27.40;;;;;;6109809;23;20368;-93
2021/03/01 10:49:55;;;;;;;7.77;7.07;;;13.00;27.00;;;;;;6108705;23;20391;-93
2021/03/01 10:52:23;;;;;;;7.33;6.53;;;13.20;26.40;;;;;;6110749;23;20373;-94
2021/03/01 10:55:03;;;;;;;8.23;7.40;;;13.30;26.50;;;;;;6113965;23;20373;-93
2021/03/01 10:57:29;;;;;;;7.40;6.70;;;13.30;26.70;;;;;;6108195;23;20364;-94
2021/03/01 10:59:56;;;;;;;7.53;6.80;;;13.20;25.40;;;;;;6113432;23;20375;-95
2021/03/01 11:09:14;;;;;;;8.23;7.13;;;13.90;25.70;;;;;;6132191;23;20360;-92
2021/03/01 11:11:40;;;;;;;8.70;7.83;;;13.90;25.00;;;;;;6128761;23;20377;-88
2021/03/01 11:14:15;;;;;;;7.77;6.97;;;13.90;24.80;;;;;;6206588;23;20389;-88
2021/03/01 11:16:47;;;;;;;7.10;6.33;;;14.30;24.80;;;;;;6213240;23;20436;-91
2021/03/01 11:19:33;;;;;;;6.83;6.20;;;14.50;24.50;;;;;;6211434;23;20382;-90
2021/03/01 11:21:59;;;;;;;8.30;7.20;;;14.50;23.60;;;;;;6209109;23;20407;-88
2021/03/01 11:24:25;;;;;;;6.20;5.60;;;14.70;24.00;;;;;;6213065;23;20381;-90
2021/03/01 11:26:55;;;;;;;7.30;6.70;;;14.80;23.40;;;;;;6206770;23;20462;-89
2021/03/01 11:29:21;;;;;;;8.47;7.57;;;14.80;22.70;;;;;;6204792;23;20385;-89
2021/03/01 11:32:06;;;;;;;8.20;6.80;;;14.90;23.00;;;;;;6203973;23;20373;-89
2021/03/01 11:34:32;;;;;;;8.23;6.10;;;14.70;21.70;;;;;;6210640;23;20375;-89
2021/03/01 11:36:58;;;;;;;7.27;5.77;;;14.60;21.40;;;;;;6208062;23;20396;-91
2021/03/01 11:39:24;;;;;;;6.43;4.50;;;14.90;21.60;;;;;;6211191;23;20213;-89
2021/03/01 11:41:56;;;;;;;6.00;5.40;;;15.30;20.40;;;;;;6212054;23;20435;-91
2021/03/01 11:44:23;;;;;;;7.20;5.10;;;15.20;20.10;;;;;;6212425;23;20382;-91
2021/03/01 11:46:50;;;;;;;5.20;4.70;;;15.30;20.30;;;;;;6208846;23;20429;-91
2021/03/01 11:49:16;;;;;;;6.93;5.88;;;14.70;19.60;;;;;;6198192;23;20405;-89
2021/03/01 11:51:47;;;;;;;5.80;5.30;;;15.10;20.40;;;;;;6195997;23;20574;-90
2021/03/01 11:54:13;;;;;;;4.83;4.43;;;15.10;19.90;;;;;;6190898;23;20182;-89
2021/03/01 11:56:39;;;;;;;5.10;4.67;;;15.30;19.80;;;;;;6192571;23;20388;-90
2021/03/01 11:59:04;;;;;;;4.97;4.53;;;15.50;19.70;;;;;;6190721;23;20150;-90
2021/03/01 12:01:33;;;;;;;4.93;4.23;;;15.70;19.10;;;;;;6191534;23;20216;-90
2021/03/01 12:03:58;;;;;;;4.70;4.30;;;15.60;18.90;;;;;;6191364;23;20177;-90
2021/03/01 12:06:24;;;;;;;5.50;5.00;;;15.70;18.80;;;;;;6186165;23;20446;-90
2021/03/01 12:08:50;;;;;;;5.53;5.00;;;16.10;19.20;;;;;;6187287;23;20140;-90
2021/03/01 12:11:16;;;;;;;4.27;3.97;;;16.30;19.30;;;;;;6186062;23;20170;-89
2021/03/01 12:13:41;;;;;;;4.30;3.90;;;16.50;18.70;;;;;;6186471;23;20172;-90
2021/03/01 12:16:07;;;;;;;5.50;5.00;;;16.50;18.20;;;;;;6187648;23;20147;-91
2021/03/01 12:18:33;;;;;;;4.20;3.80;;;16.80;17.10;;;;;;6186458;23;20147;-90
2021/03/01 12:20:59;;;;;;;4.10;3.70;;;17.00;17.50;;;;;;6187605;23;20158;-89
2021/03/01 12:23:25;;;;;;;4.00;3.60;;;17.00;17.70;;;;;;6188113;23;20151;-89
2021/03/01 12:25:52;;;;;;;5.73;4.07;;;17.10;17.10;;;;;;6187810;23;20425;-90
2021/03/01 12:28:17;;;;;;;3.77;3.23;;;17.10;17.00;;;;;;6187537;23;20382;-89
2021/03/01 12:30:44;;;;;;;3.70;3.40;;;17.00;17.00;;;;;;6188056;23;20371;-90
2021/03/01 12:33:41;;;;;;;4.37;3.97;;;17.00;17.10;;;;;;6188467;23;20197;-90
2021/03/01 12:36:07;;;;;;;4.60;3.40;;;17.30;16.70;;;;;;6195346;23;20367;-91
2021/03/01 12:38:51;;;;;;;4.50;3.77;;;17.10;16.70;;;;;;6190823;23;20363;-89
2021/03/01 12:41:16;;;;;;;3.50;3.20;;;17.30;16.20;;;;;;6188343;23;20411;-90
2021/03/01 12:44:12;;;;;;;5.83;4.20;;;17.30;16.30;;;;;;6188368;23;20828;-91
2021/03/01 12:46:38;;;;;;;3.47;3.17;;;17.70;16.40;;;;;;6188444;23;20167;-88
2021/03/01 12:49:17;;;;;;;3.90;3.40;;;17.60;16.50;;;;;;6188454;23;20674;-88
2021/03/01 12:51:43;;;;;;;6.30;3.63;;;17.70;16.70;;;;;;6187416;23;20157;-89
2021/03/01 12:54:09;;;;;;;3.77;3.40;;;18.00;16.60;;;;;;6189410;23;20378;-88
2021/03/01 12:56:35;;;;;;;3.77;3.47;;;18.10;16.70;;;;;;6190807;23;20148;-89
2021/03/01 13:05:32;;;;;;;6.20;3.80;;;18.20;15.80;;;;;;6188520;23;20441;-88
2021/03/01 13:07:57;;;;;;;3.93;3.53;;;18.20;16.10;;;;;;6187067;23;20849;-88
2021/03/01 13:10:37;;;;;;;3.63;3.30;;;18.10;16.70;;;;;;6187480;23;20501;-88
2021/03/01 13:13:03;;;;;;;4.10;3.60;;;18.10;16.60;;;;;;6187354;23;20147;-88
2021/03/01 13:16:05;;;;;;;7.40;3.50;;;17.80;16.30;;;;;;6187222;23;20490;-89
2021/03/01 13:18:31;;;;;;;4.73;3.37;;;18.00;16.60;;;;;;6187585;23;20154;-89
2021/03/01 13:20:58;;;;;;;4.00;3.70;;;18.00;16.60;;;;;;6188972;23;20359;-90
2021/03/01 13:23:24;;;;;;;4.60;4.20;;;18.00;16.60;;;;;;6187211;23;20151;-91
2021/03/01 13:26:18;;;;;;;4.20;3.80;;;18.20;16.80;;;;;;6187603;23;20448;-89
2021/03/01 13:28:44;;;;;;;4.23;3.60;;;17.90;16.50;;;;;;6187837;23;20373;-89
2021/03/01 13:31:47;;;;;;;3.83;3.53;;;17.90;17.00;;;;;;6188790;23;20386;-89
2021/03/01 13:34:12;;;;;;;4.60;4.23;;;18.20;16.70;;;;;;6188014;23;20197;-90
2021/03/01 13:36:38;;;;;;;3.83;3.53;;;18.00;16.60;;;;;;6188103;23;20417;-90
2021/03/01 13:39:27;;;;;;;3.90;3.50;;;18.10;16.70;;;;;;6187786;23;20198;-90
2021/03/01 13:41:53;;;;;;;5.43;3.50;;;18.30;16.90;;;;;;6188047;23;20230;-91
2021/03/01 13:44:27;;;;;;;5.30;4.30;;;18.10;16.70;;;;;;6187632;23;20374;-88
2021/03/01 13:46:52;;;;;;;3.97;3.67;;;18.20;17.00;;;;;;6186767;23;20437;-89
2021/03/01 13:49:18;;;;;;;4.73;4.33;;;17.90;16.80;;;;;;6186995;23;20371;-89
2021/03/01 13:51:50;;;;;;;4.20;3.67;;;17.60;17.60;;;;;;6187001;23;20222;-89
2021/03/01 13:54:17;;;;;;;3.87;3.57;;;17.80;17.80;;;;;;6188146;23;20583;-89
2021/03/01 13:56:43;;;;;;;4.60;4.30;;;18.10;17.80;;;;;;6186317;23;20707;-87
2021/03/01 13:59:36;;;;;;;4.13;3.20;;;17.90;17.80;;;;;;6186626;23;20464;-89
2021/03/01 14:02:02;;;;;;;4.83;4.33;;;18.00;17.90;;;;;;6186637;23;20226;-89
2021/03/01 14:04:37;;;;;;;3.83;3.40;;;18.00;17.80;;;;;;6186383;23;20729;-89
2021/03/01 14:07:03;;;;;;;6.90;4.30;;;18.00;18.00;;;;;;6186670;23;20525;-89
2021/03/01 14:09:29;;;;;;;4.20;3.87;;;18.10;18.20;;;;;;6186674;23;20466;-88
2021/03/01 14:12:45;;;;;;;5.70;4.60;;;18.10;17.80;;;;;;6187016;23;20717;-88
2021/03/01 14:15:11;;;;;;;8.47;4.03;;;18.20;18.10;;;;;;6186912;23;20382;-88
2021/03/01 14:18:00;;;;;;;5.10;4.63;;;18.10;18.00;;;;;;6187737;23;20706;-87
2021/03/01 14:20:26;;;;;;;4.90;4.50;;;18.10;18.10;;;;;;6187181;23;20383;-88
2021/03/01 14:23:02;;;;;;;4.70;4.30;;;18.10;18.20;;;;;;6187461;23;20481;-88
2021/03/01 14:25:28;;;;;;;5.77;4.20;;;17.90;18.30;;;;;;6186660;23;20235;-88
2021/03/01 14:28:13;;;;;;;4.73;4.33;;;18.20;18.40;;;;;;6187070;23;20406;-87
2021/03/01 14:30:38;;;;;;;4.57;4.17;;;17.90;18.40;;;;;;6186482;23;20135;-87
2021/03/01 14:33:33;;;;;;;5.13;4.63;;;17.90;18.60;;;;;;6186289;23;20433;-87
2021/03/01 14:35:59;;;;;;;4.80;4.40;;;17.80;18.60;;;;;;6186284;23;20230;-88
2021/03/01 14:38:32;;;;;;;4.60;4.20;;;17.70;18.80;;;;;;6186331;23;20378;-87
2021/03/01 14:40:58;;;;;;;4.83;4.43;;;17.70;18.70;;;;;;6186350;23;20171;-88
2021/03/01 14:43:25;;;;;;;4.70;3.87;;;17.50;18.80;;;;;;6186379;23;20378;-89
2021/03/01 14:45:50;;;;;;;5.20;4.80;;;17.80;18.70;;;;;;6186312;23;20422;-89
2021/03/01 14:48:18;;;;;;;5.87;4.67;;;17.70;18.50;;;;;;6188147;23;20368;-88
2021/03/01 14:50:44;;;;;;;5.10;4.10;;;17.80;18.30;;;;;;6187556;23;20199;-90
2021/03/01 14:53:12;;;;;;;4.00;3.70;;;17.90;18.40;;;;;;6186298;23;20405;-88
2021/03/01 14:55:39;;;;;;;5.20;4.37;;;18.00;18.30;;;;;;6186138;23;20149;-88
2021/03/01 14:58:18;;;;;;;6.53;4.00;;;18.10;18.30;;;;;;6186536;23;20378;-88
2021/03/01 15:00:44;;;;;;;8.43;4.80;;;17.90;17.80;;;;;;6186570;23;20392;-87
2021/03/01 15:03:26;;;;;;;5.97;5.20;;;18.10;18.20;;;;;;6186886;23;20445;-88
2021/03/01 15:06:27;;;;;;;5.33;4.83;;;18.00;18.20;;;;;;6187117;23;20951;-93
2021/03/01 15:08:53;;;;;;;4.80;4.40;;;18.10;18.10;;;;;;6188300;23;20365;-85
2021/03/01 15:11:26;;;;;;;4.40;4.00;;;18.20;18.50;;;;;;6188883;23;20371;-89
2021/03/01 15:13:52;;;;;;;8.40;5.73;;;18.20;18.50;;;;;;6187326;23;20265;-87
2021/03/01 15:16:18;;;;;;;5.30;4.80;;;17.90;18.60;;;;;;6189518;23;20797;-89
2021/03/01 15:18:43;;;;;;;5.77;4.30;;;18.10;19.00;;;;;;6187128;23;20418;-88
2021/03/01 15:21:17;;;;;;;8.33;4.80;;;17.80;18.50;;;;;;6188641;23;20371;-88
2021/03/01 15:23:43;;;;;;;5.10;4.60;;;17.50;18.80;;;;;;6186602;23;20139;-88
2021/03/01 15:26:09;;;;;;;5.87;5.27;;;17.60;18.80;;;;;;6185574;23;20429;-87
2021/03/01 15:28:35;;;;;;;5.37;4.87;;;17.50;18.50;;;;;;6185966;23;20154;-87
2021/03/01 15:31:04;;;;;;;6.53;5.00;;;17.60;18.80;;;;;;6187097;23;20402;-88
2021/03/01 15:33:29;;;;;;;5.03;4.63;;;17.60;18.80;;;;;;6188027;23;20387;-89
2021/03/01 15:35:56;;;;;;;5.83;5.23;;;17.30;18.80;;;;;;6191428;23;20411;-96
2021/03/01 15:38:22;;;;;;;6.23;5.23;;;17.50;19.00;;;;;;6198987;23;20377;-93
2021/03/01 15:44:10;;;;;;;7.43;4.80;;;17.60;18.80;;;;;;6198383;23;20378;-91
2021/03/01 15:46:37;;;;;;;5.70;5.20;;;17.60;18.80;;;;;;6188960;23;20452;-91
2021/03/01 15:49:03;;;;;;;5.20;4.70;;;17.70;18.80;;;;;;6189024;23;20230;-93
2021/03/01 15:54:51;;;;;;;8.10;5.53;;;17.60;18.70;;;;;;6195612;23;20370;-87
2021/03/01 15:57:17;;;;;;;5.80;5.20;;;17.70;18.80;;;;;;6188932;23;20734;-87
2021/03/01 21:57:53;;;;;;;7.60;6.57;;;5.50;46.10;;;;;;6206936;23;20206;-88
